createdAt,value
2023-05-06T00:00:27.090Z,100030.63
2023-05-06T00:02:54.568Z,100030.23
2023-05-06T00:05:22.265Z,100034.73
2023-05-06T00:07:49.409Z,100041.00
2023-05-06T00:10:17.284Z,100048.88
2023-05-06T00:12:44.455Z,100048.80
2023-05-06T00:15:11.891Z,100049.91
2023-05-06T00:17:39.669Z,100052.56
2023-05-06T00:20:07.873Z,100053.01
2023-05-06T00:22:34.942Z,100052.27
2023-05-06T00:25:02.412Z,100056.50
2023-05-06T00:27:29.447Z,100060.10
2023-05-06T00:29:58.846Z,100064.67
2023-05-06T00:32:26.507Z,100064.05
2023-05-06T00:34:53.654Z,100061.45
2023-05-06T00:37:20.899Z,100062.88
2023-05-06T00:39:48.025Z,100061.89
2023-05-06T00:42:15.254Z,100059.11
2023-05-06T00:44:42.382Z,100055.36
2023-05-06T00:47:09.833Z,100054.30
2023-05-06T00:49:37.562Z,100050.91
2023-05-06T00:52:04.836Z,100051.60
2023-05-06T00:54:32.109Z,100055.36
2023-05-06T00:56:59.623Z,100059.11
2023-05-06T00:59:27.277Z,100061.83
2023-05-06T01:01:54.775Z,100062.43
2023-05-06T01:04:24.259Z,100061.46
2023-05-06T01:07:14.117Z,100061.27
2023-05-06T01:10:02.960Z,100061.19
2023-05-06T01:12:35.934Z,100062.00
2023-05-06T01:15:11.955Z,100064.69
2023-05-06T01:17:46.291Z,100063.36
2023-05-06T01:20:15.406Z,100068.30
2023-05-06T01:22:43.334Z,100066.34
2023-05-06T01:25:20.422Z,100070.81
2023-05-06T01:27:48.572Z,100069.59
2023-05-06T01:30:18.770Z,100072.41
2023-05-06T01:33:05.194Z,100069.82
2023-05-06T01:35:33.299Z,100078.91
2023-05-06T01:38:03.560Z,100077.95
2023-05-06T01:40:33.908Z,100079.61
2023-05-06T01:43:02.808Z,100081.63
2023-05-06T01:45:34.257Z,100078.02
2023-05-06T01:48:02.145Z,100075.78
2023-05-06T01:50:30.790Z,100071.31
2023-05-06T01:53:00.149Z,100072.05
2023-05-06T01:55:27.680Z,100073.87
2023-05-06T01:57:57.040Z,100074.38
2023-05-06T02:00:25.594Z,100075.42
2023-05-06T02:02:52.821Z,100077.43
2023-05-06T02:05:21.148Z,100079.90
2023-05-06T02:07:49.765Z,100083.83
2023-05-06T02:10:17.339Z,100083.14
2023-05-06T02:12:49.381Z,100088.36
2023-05-06T02:15:16.483Z,100084.19
2023-05-06T02:17:44.718Z,100085.80
2023-05-06T02:20:11.861Z,100082.45
2023-05-06T02:22:39.189Z,100083.42
2023-05-06T02:25:07.096Z,100079.23
2023-05-06T02:27:34.440Z,100084.36
2023-05-06T02:30:01.909Z,100087.86
2023-05-06T02:32:29.806Z,100080.52
2023-05-06T02:34:56.868Z,100082.80
2023-05-06T02:37:23.930Z,100084.86
2023-05-06T02:39:51.005Z,100090.64
2023-05-06T02:42:18.185Z,100094.92
2023-05-06T02:44:46.321Z,100098.70
2023-05-06T02:47:13.482Z,100101.43
2023-05-06T02:49:40.619Z,100104.59
2023-05-06T02:52:07.805Z,100104.23
2023-05-06T02:54:35.011Z,100106.23
2023-05-06T02:57:02.667Z,100109.65
2023-05-06T02:59:29.948Z,100115.21
2023-05-06T03:01:57.169Z,100119.30
2023-05-06T03:04:24.295Z,100124.48
2023-05-06T03:06:51.398Z,100128.73
2023-05-06T03:09:18.810Z,100130.42
2023-05-06T03:11:46.605Z,100132.70
2023-05-06T03:14:14.112Z,100130.55
2023-05-06T03:16:41.239Z,100135.30
2023-05-06T03:19:09.410Z,100137.06
2023-05-06T03:21:36.608Z,100138.41
2023-05-06T03:24:04.222Z,100130.85
2023-05-06T03:26:31.392Z,100134.14
2023-05-06T03:28:59.241Z,100136.06
2023-05-06T03:31:26.403Z,100143.11
2023-05-06T03:33:53.914Z,100146.82
2023-05-06T03:36:24.128Z,100146.90
2023-05-06T03:38:52.352Z,100152.50
2023-05-06T03:41:19.523Z,100154.55
2023-05-06T03:43:46.875Z,100155.98
2023-05-06T03:46:14.192Z,100154.36
2023-05-06T03:48:42.008Z,100157.48
2023-05-06T03:51:11.278Z,100155.86
2023-05-06T03:53:39.218Z,100160.28
2023-05-06T03:56:06.788Z,100164.51
2023-05-06T03:58:35.007Z,100172.52
2023-05-06T04:01:03.201Z,100172.26
2023-05-06T04:03:30.470Z,100181.87
2023-05-06T04:05:57.730Z,100183.99
2023-05-06T04:08:26.818Z,100180.73
2023-05-06T04:10:55.437Z,100184.77
2023-05-06T04:13:27.204Z,100183.00
2023-05-06T04:15:55.383Z,100187.65
2023-05-06T04:18:25.401Z,100187.27
2023-05-06T04:21:00.425Z,100189.58
2023-05-06T04:23:29.058Z,100191.16
2023-05-06T04:25:58.193Z,100187.10
2023-05-06T04:28:25.941Z,100185.21
2023-05-06T04:30:54.020Z,100185.86
2023-05-06T04:33:25.286Z,100189.80
2023-05-06T04:36:00.481Z,100192.08
2023-05-06T04:38:30.972Z,100189.85
2023-05-06T04:40:58.736Z,100191.19
2023-05-06T04:43:29.663Z,100197.89
2023-05-06T04:46:03.502Z,100194.98
2023-05-06T04:48:32.759Z,100196.30
2023-05-06T04:51:00.446Z,100200.38
2023-05-06T04:53:28.045Z,100201.73
2023-05-06T04:55:56.473Z,100199.58
2023-05-06T04:58:23.942Z,100197.55
2023-05-06T05:00:51.258Z,100197.39
2023-05-06T05:03:18.902Z,100198.13
2023-05-06T05:05:46.996Z,100203.71
2023-05-06T05:08:16.604Z,100204.45
2023-05-06T05:10:43.824Z,100203.43
2023-05-06T05:13:14.174Z,100206.22
2023-05-06T05:15:42.419Z,100205.83
2023-05-06T05:18:10.005Z,100206.85
2023-05-06T05:20:39.331Z,100205.19
2023-05-06T05:23:07.942Z,100202.34
2023-05-06T05:25:35.189Z,100204.46
2023-05-06T05:28:02.399Z,100203.64
2023-05-06T05:30:29.869Z,100207.45
2023-05-06T05:32:57.919Z,100211.41
2023-05-06T05:35:25.039Z,100207.14
2023-05-06T05:37:52.311Z,100204.84
2023-05-06T05:40:20.287Z,100205.49
2023-05-06T05:42:49.684Z,100205.73
2023-05-06T05:45:22.514Z,100206.02
2023-05-06T05:47:50.214Z,100198.82
2023-05-06T05:50:17.525Z,100198.27
2023-05-06T05:52:45.839Z,100199.88
2023-05-06T05:55:13.912Z,100197.66
2023-05-06T05:57:42.279Z,100196.00
2023-05-06T06:00:11.601Z,100200.16
2023-05-06T06:02:46.595Z,100199.75
2023-05-06T06:05:15.999Z,100194.05
2023-05-06T06:07:43.198Z,100195.76
2023-05-06T06:10:10.818Z,100191.64
2023-05-06T06:12:38.504Z,100189.99
2023-05-06T06:15:06.356Z,100191.15
2023-05-06T06:17:33.769Z,100192.40
2023-05-06T06:20:02.166Z,100194.91
2023-05-06T06:22:29.351Z,100198.96
2023-05-06T06:24:56.713Z,100202.45
2023-05-06T06:27:24.033Z,100202.95
2023-05-06T06:29:51.388Z,100207.36
2023-05-06T06:32:19.783Z,100209.77
2023-05-06T06:34:47.494Z,100211.34
2023-05-06T06:37:14.672Z,100210.67
2023-05-06T06:39:41.844Z,100214.77
2023-05-06T06:42:08.913Z,100218.77
2023-05-06T06:44:39.180Z,100223.73
2023-05-06T06:47:06.419Z,100224.84
2023-05-06T06:49:33.544Z,100228.75
2023-05-06T06:52:00.585Z,100232.94
2023-05-06T06:54:28.006Z,100240.17
2023-05-06T06:56:58.637Z,100240.45
2023-05-06T06:59:26.012Z,100244.09
2023-05-06T07:01:53.155Z,100246.17
2023-05-06T07:04:20.212Z,100251.08
2023-05-06T07:06:47.514Z,100254.66
2023-05-06T07:09:14.730Z,100256.71
2023-05-06T07:11:42.137Z,100253.95
2023-05-06T07:14:09.633Z,100253.83
2023-05-06T07:16:36.782Z,100255.94
2023-05-06T07:19:04.344Z,100263.64
2023-05-06T07:21:34.564Z,100264.30
2023-05-06T07:24:01.772Z,100267.71
2023-05-06T07:26:28.874Z,100262.68
2023-05-06T07:28:55.956Z,100268.36
2023-05-06T07:31:23.167Z,100270.52
2023-05-06T07:33:50.362Z,100274.81
2023-05-06T07:36:17.809Z,100275.73
2023-05-06T07:38:47.373Z,100274.57
2023-05-06T07:41:14.909Z,100274.91
2023-05-06T07:43:42.577Z,100272.49
2023-05-06T07:46:10.232Z,100282.12
2023-05-06T07:48:37.462Z,100287.40
2023-05-06T07:51:04.779Z,100290.22
2023-05-06T07:53:31.968Z,100290.91
2023-05-06T07:56:02.430Z,100292.23
2023-05-06T07:58:31.538Z,100300.30
2023-05-06T08:00:58.764Z,100298.29
2023-05-06T08:03:26.705Z,100292.88
2023-05-06T08:05:55.364Z,100296.11
2023-05-06T08:08:24.189Z,100291.11
2023-05-06T08:10:51.445Z,100291.40
2023-05-06T08:13:18.471Z,100295.84
2023-05-06T08:15:46.034Z,100303.55
2023-05-06T08:18:21.576Z,100305.45
2023-05-06T08:20:49.250Z,100307.63
2023-05-06T08:23:16.568Z,100309.25
2023-05-06T08:25:44.091Z,100308.52
2023-05-06T08:28:11.268Z,100307.20
2023-05-06T08:30:38.660Z,100303.65
2023-05-06T08:33:06.063Z,100308.30
2023-05-06T08:35:33.044Z,100306.80
2023-05-06T08:38:00.336Z,100311.75
2023-05-06T08:40:29.984Z,100311.67
2023-05-06T08:42:59.669Z,100312.73
2023-05-06T08:45:29.265Z,100311.26
2023-05-06T08:47:56.804Z,100311.13
2023-05-06T08:50:25.657Z,100312.52
2023-05-06T08:52:52.899Z,100314.73
2023-05-06T08:55:21.193Z,100317.50
2023-05-06T08:57:49.702Z,100315.77
2023-05-06T09:00:18.001Z,100313.90
2023-05-06T09:02:45.154Z,100319.39
2023-05-06T09:05:12.905Z,100317.36
2023-05-06T09:07:40.245Z,100322.36
2023-05-06T09:10:14.323Z,100317.99
2023-05-06T09:12:42.109Z,100317.52
2023-05-06T09:15:10.312Z,100319.40
2023-05-06T09:17:37.529Z,100326.20
2023-05-06T09:20:08.577Z,100325.73
2023-05-06T09:22:40.461Z,100323.08
2023-05-06T09:25:08.414Z,100322.35
2023-05-06T09:27:37.058Z,100319.92
2023-05-06T09:30:09.760Z,100317.92
2023-05-06T09:32:39.287Z,100321.02
2023-05-06T09:35:08.857Z,100326.63
2023-05-06T09:37:36.444Z,100326.79
2023-05-06T09:40:03.857Z,100326.83
2023-05-06T09:42:31.720Z,100321.80
2023-05-06T09:45:02.532Z,100328.31
2023-05-06T09:47:35.476Z,100323.05
2023-05-06T09:50:04.516Z,100329.19
2023-05-06T09:52:31.765Z,100328.86
2023-05-06T09:55:00.956Z,100332.73
2023-05-06T09:57:31.429Z,100331.60
2023-05-06T09:59:59.670Z,100327.64
2023-05-06T10:02:27.066Z,100332.23
2023-05-06T10:04:58.815Z,100338.36
2023-05-06T10:07:29.249Z,100338.69
2023-05-06T10:09:58.639Z,100342.50
2023-05-06T10:12:26.495Z,100341.59
2023-05-06T10:14:53.636Z,100338.17
2023-05-06T10:17:25.852Z,100343.67
2023-05-06T10:19:57.378Z,100343.68
2023-05-06T10:22:49.739Z,100347.24
2023-05-06T10:25:41.151Z,100355.11
2023-05-06T10:28:17.855Z,100354.19
2023-05-06T10:30:59.336Z,100353.60
2023-05-06T10:33:28.102Z,100357.15
2023-05-06T10:36:20.688Z,100358.69
2023-05-06T10:38:55.579Z,100357.22
2023-05-06T10:41:26.296Z,100356.25
2023-05-06T10:43:57.422Z,100351.80
2023-05-06T10:46:29.142Z,100351.38
2023-05-06T10:49:11.456Z,100352.90
2023-05-06T10:51:43.620Z,100349.89
2023-05-06T10:54:19.920Z,100347.31
2023-05-06T10:56:47.168Z,100345.30
2023-05-06T10:59:14.649Z,100345.60
2023-05-06T11:01:43.971Z,100343.41
2023-05-06T11:04:16.162Z,100342.30
2023-05-06T11:06:49.182Z,100342.63
2023-05-06T11:09:17.072Z,100341.63
2023-05-06T11:12:05.137Z,100341.44
2023-05-06T11:14:37.930Z,100337.42
2023-05-06T11:17:10.289Z,100338.55
2023-05-06T11:19:40.282Z,100338.09
2023-05-06T11:22:07.679Z,100332.93
2023-05-06T11:24:43.152Z,100332.35
2023-05-06T11:27:11.271Z,100332.27
2023-05-06T11:29:38.360Z,100333.06
2023-05-06T11:32:25.754Z,100331.87
2023-05-06T11:34:56.569Z,100328.67
2023-05-06T11:37:28.974Z,100327.17
2023-05-06T11:39:56.160Z,100320.48
2023-05-06T11:42:29.360Z,100314.48
2023-05-06T11:44:56.773Z,100314.16
2023-05-06T11:47:24.517Z,100321.00
2023-05-06T11:49:54.666Z,100324.17
2023-05-06T11:52:21.839Z,100325.27
2023-05-06T11:54:53.301Z,100325.40
2023-05-06T11:57:21.232Z,100325.52
2023-05-06T11:59:55.474Z,100324.85
2023-05-06T12:02:22.674Z,100324.21
2023-05-06T12:04:53.595Z,100324.70
2023-05-06T12:07:20.959Z,100317.69
2023-05-06T12:09:50.536Z,100320.19
2023-05-06T12:12:24.384Z,100317.26
2023-05-06T12:14:53.690Z,100313.96
2023-05-06T12:17:20.954Z,100309.96
2023-05-06T12:19:48.290Z,100310.30
2023-05-06T12:22:20.676Z,100309.05
2023-05-06T12:24:49.282Z,100311.19
2023-05-06T12:27:33.608Z,100311.34
2023-05-06T12:30:01.446Z,100311.13
2023-05-06T12:32:29.013Z,100316.61
2023-05-06T12:34:56.656Z,100320.20
2023-05-06T12:37:30.869Z,100317.95
2023-05-06T12:39:59.423Z,100320.27
2023-05-06T12:42:27.157Z,100318.28
2023-05-06T12:44:54.362Z,100320.58
2023-05-06T12:47:26.732Z,100320.75
2023-05-06T12:49:55.225Z,100325.14
2023-05-06T12:52:24.348Z,100321.69
2023-05-06T12:54:53.022Z,100322.41
2023-05-06T12:57:21.031Z,100327.08
2023-05-06T12:59:50.057Z,100331.15
2023-05-06T13:02:17.204Z,100335.75
2023-05-06T13:04:49.882Z,100338.39
2023-05-06T13:07:18.713Z,100340.79
2023-05-06T13:09:45.794Z,100341.48
2023-05-06T13:12:13.379Z,100343.71
2023-05-06T13:14:41.120Z,100343.54
2023-05-06T13:17:08.757Z,100346.02
2023-05-06T13:19:37.424Z,100347.32
2023-05-06T13:22:04.544Z,100348.40
2023-05-06T13:24:32.492Z,100349.98
2023-05-06T13:27:01.455Z,100345.20
2023-05-06T13:29:30.042Z,100340.35
2023-05-06T13:31:57.447Z,100343.86
2023-05-06T13:34:24.693Z,100345.37
2023-05-06T13:36:52.420Z,100342.79
2023-05-06T13:39:19.926Z,100342.49
2023-05-06T13:41:50.555Z,100351.90
2023-05-06T13:44:21.576Z,100349.65
2023-05-06T13:46:49.332Z,100344.48
2023-05-06T13:49:17.340Z,100344.63
2023-05-06T13:51:44.570Z,100341.88
2023-05-06T13:54:11.680Z,100339.33
2023-05-06T13:56:39.098Z,100335.83
2023-05-06T13:59:08.418Z,100346.98
2023-05-06T14:01:36.162Z,100347.98
2023-05-06T14:04:03.844Z,100353.33
2023-05-06T14:06:31.279Z,100355.68
2023-05-06T14:08:58.513Z,100354.63
2023-05-06T14:11:25.632Z,100355.02
2023-05-06T14:13:52.930Z,100353.46
2023-05-06T14:16:20.083Z,100357.46
2023-05-06T14:18:47.358Z,100359.74
2023-05-06T14:21:14.626Z,100354.48
2023-05-06T14:23:41.775Z,100359.94
2023-05-06T14:26:09.045Z,100356.98
2023-05-06T14:28:36.175Z,100354.86
2023-05-06T14:31:03.613Z,100351.46
2023-05-06T14:33:31.060Z,100350.83
2023-05-06T14:35:58.605Z,100351.59
2023-05-06T14:38:25.758Z,100355.67
2023-05-06T14:40:52.776Z,100358.89
2023-05-06T14:43:20.162Z,100355.92
2023-05-06T14:45:47.734Z,100353.19
2023-05-06T14:48:15.830Z,100352.33
2023-05-06T14:50:42.939Z,100357.82
2023-05-06T14:53:10.450Z,100359.48
2023-05-06T14:55:37.796Z,100359.89
2023-05-06T14:58:04.951Z,100362.88
2023-05-06T15:00:31.962Z,100361.46
2023-05-06T15:02:59.547Z,100366.77
2023-05-06T15:05:26.674Z,100365.71
2023-05-06T15:07:54.163Z,100363.52
2023-05-06T15:10:22.975Z,100364.67
2023-05-06T15:12:50.289Z,100367.94
2023-05-06T15:15:17.364Z,100369.34
2023-05-06T15:17:44.488Z,100371.52
2023-05-06T15:20:12.878Z,100371.45
2023-05-06T15:22:39.964Z,100370.66
2023-05-06T15:25:12.217Z,100371.60
2023-05-06T15:27:42.095Z,100375.77
2023-05-06T15:30:10.109Z,100377.52
2023-05-06T15:32:37.198Z,100379.41
2023-05-06T15:35:05.118Z,100374.86
2023-05-06T15:37:33.936Z,100373.45
2023-05-06T15:40:01.218Z,100370.98
2023-05-06T15:42:29.729Z,100371.02
2023-05-06T15:44:58.330Z,100372.79
2023-05-06T15:47:25.682Z,100377.48
2023-05-06T15:52:39.964Z,100388.70
2023-05-06T15:55:07.919Z,100387.60
2023-05-06T15:57:35.741Z,100392.64
2023-05-06T16:00:05.409Z,100399.02
2023-05-06T16:02:35.301Z,100397.96
2023-05-06T16:05:03.205Z,100398.95
2023-05-06T16:07:30.418Z,100399.48
2023-05-06T16:09:57.795Z,100403.40
2023-05-06T16:12:24.858Z,100403.08
2023-05-06T16:14:52.506Z,100405.17
2023-05-06T16:17:19.594Z,100404.98
2023-05-06T16:19:49.160Z,100406.61
2023-05-06T16:22:16.615Z,100402.70
2023-05-06T16:24:43.751Z,100406.55
2023-05-06T16:27:10.844Z,100404.59
2023-05-06T16:29:37.985Z,100407.67
2023-05-06T16:32:05.622Z,100413.14
2023-05-06T16:34:32.682Z,100414.20
2023-05-06T16:37:00.807Z,100417.72
2023-05-06T16:39:28.393Z,100415.45
2023-05-06T16:41:55.482Z,100411.89
2023-05-06T16:44:22.547Z,100411.92
2023-05-06T16:46:49.818Z,100414.11
2023-05-06T16:49:17.107Z,100417.34
2023-05-06T16:51:44.138Z,100416.34
2023-05-06T16:54:11.227Z,100416.98
2023-05-06T16:56:50.892Z,100417.03
2023-05-06T16:59:22.254Z,100419.81
2023-05-06T17:01:50.914Z,100427.19
2023-05-06T17:04:18.299Z,100428.84
2023-05-06T17:06:45.365Z,100430.17
2023-05-06T17:09:13.301Z,100428.63
2023-05-06T17:11:40.386Z,100430.70
2023-05-06T17:14:07.908Z,100432.77
2023-05-06T17:16:35.486Z,100436.08
2023-05-06T17:19:02.504Z,100438.22
2023-05-06T17:21:29.913Z,100444.80
2023-05-06T17:23:57.020Z,100442.05
2023-05-06T17:26:24.740Z,100441.41
2023-05-06T17:28:51.983Z,100441.59
2023-05-06T17:31:19.466Z,100441.98
2023-05-06T17:33:47.336Z,100444.33
2023-05-06T17:36:16.228Z,100447.61
2023-05-06T17:38:43.542Z,100451.21
2023-05-06T17:41:10.744Z,100450.58
2023-05-06T17:43:37.816Z,100451.91
2023-05-06T17:46:05.116Z,100459.64
2023-05-06T17:48:32.733Z,100458.66
2023-05-06T17:51:03.264Z,100466.56
2023-05-06T17:53:33.292Z,100469.73
2023-05-06T17:56:00.449Z,100472.30
2023-05-06T17:58:27.708Z,100470.39
2023-05-06T18:00:54.914Z,100481.09
2023-05-06T18:03:23.248Z,100490.70
2023-05-06T18:05:50.696Z,100491.89
2023-05-06T18:08:18.328Z,100499.64
2023-05-06T18:10:45.654Z,100504.63
2023-05-06T18:13:13.046Z,100512.95
2023-05-06T18:15:40.171Z,100516.60
2023-05-06T18:18:07.697Z,100522.08
2023-05-06T18:20:35.084Z,100532.15
2023-05-06T18:23:02.240Z,100536.88
2023-05-06T18:25:29.285Z,100540.45
2023-05-06T18:27:56.623Z,100552.36
2023-05-06T18:30:23.778Z,100550.02
2023-05-06T18:32:52.334Z,100557.48
2023-05-06T18:35:20.742Z,100560.40
2023-05-06T18:37:47.921Z,100563.56
2023-05-06T18:40:15.381Z,100566.30
2023-05-06T18:42:42.473Z,100566.79
2023-05-06T18:45:10.744Z,100569.66
2023-05-06T18:47:40.493Z,100572.48
2023-05-06T18:50:09.307Z,100578.69
2023-05-06T18:52:37.862Z,100581.11
2023-05-06T18:55:05.964Z,100585.98
2023-05-06T18:57:33.735Z,100586.19
2023-05-06T19:00:00.761Z,100584.25
2023-05-06T19:02:28.188Z,100590.40
2023-05-06T19:04:55.509Z,100585.91
2023-05-06T19:07:22.784Z,100585.14
2023-05-06T19:09:50.009Z,100584.95
2023-05-06T19:12:18.599Z,100580.27
2023-05-06T19:14:45.639Z,100577.60
2023-05-06T19:17:12.949Z,100578.73
2023-05-06T19:19:40.870Z,100581.92
2023-05-06T19:22:08.086Z,100578.84
2023-05-06T19:24:35.176Z,100583.90
2023-05-06T19:27:02.874Z,100582.70
2023-05-06T19:29:30.186Z,100586.45
2023-05-06T19:31:57.186Z,100594.67
2023-05-06T19:34:25.000Z,100590.84
2023-05-06T19:36:52.475Z,100594.77
2023-05-06T19:39:21.494Z,100589.25
2023-05-06T19:41:48.615Z,100590.46
2023-05-06T19:44:15.915Z,100585.45
2023-05-06T19:46:43.144Z,100582.55
2023-05-06T19:49:10.315Z,100577.33
2023-05-06T19:51:37.365Z,100573.63
2023-05-06T19:54:04.438Z,100571.49
2023-05-06T19:56:31.805Z,100573.83
2023-05-06T19:58:58.947Z,100574.88
2023-05-06T20:01:27.456Z,100579.30
2023-05-06T20:03:55.515Z,100581.41
2023-05-06T20:06:22.793Z,100587.02
2023-05-06T20:08:49.867Z,100585.71
2023-05-06T20:11:16.998Z,100582.04
2023-05-06T20:13:44.148Z,100578.71
2023-05-06T20:16:11.567Z,100584.27
2023-05-06T20:18:41.021Z,100588.00
2023-05-06T20:21:08.235Z,100591.93
2023-05-06T20:23:35.561Z,100594.73
2023-05-06T20:26:02.599Z,100590.59
2023-05-06T20:28:31.198Z,100598.77
2023-05-06T20:31:00.021Z,100594.43
2023-05-06T20:33:27.056Z,100598.48
2023-05-06T20:35:55.730Z,100599.14
2023-05-06T20:38:23.145Z,100600.76
2023-05-06T20:40:50.692Z,100608.10
2023-05-06T20:43:17.774Z,100604.69
2023-05-06T20:45:44.849Z,100602.23
2023-05-06T20:48:13.689Z,100600.27
2023-05-06T20:50:42.788Z,100599.31
2023-05-06T20:53:10.021Z,100598.32
2023-05-06T20:55:37.878Z,100599.20
2023-05-06T20:58:05.131Z,100595.02
2023-05-06T21:00:32.232Z,100592.16
2023-05-06T21:02:59.675Z,100588.30
2023-05-06T21:05:27.011Z,100586.00
2023-05-06T21:07:54.046Z,100587.73
2023-05-06T21:10:21.131Z,100587.98
2023-05-06T21:12:50.372Z,100590.32
2023-05-06T21:15:17.601Z,100591.41
2023-05-06T21:17:45.005Z,100591.66
2023-05-06T21:20:13.392Z,100588.95
2023-05-06T21:22:40.492Z,100592.25
2023-05-06T21:25:09.208Z,100589.73
2023-05-06T21:27:36.928Z,100588.09
2023-05-06T21:30:04.830Z,100595.75
2023-05-06T21:32:33.322Z,100593.77
2023-05-06T21:35:04.088Z,100596.34
2023-05-06T21:37:32.061Z,100601.48
2023-05-06T21:40:00.501Z,100605.26
2023-05-06T21:42:27.854Z,100604.96
2023-05-06T21:44:55.404Z,100609.98
2023-05-06T21:47:22.691Z,100611.56
2023-05-06T21:49:49.784Z,100611.98
2023-05-06T21:52:16.802Z,100613.73
2023-05-06T21:54:46.395Z,100620.16
2023-05-06T21:57:13.641Z,100622.05
2023-05-06T21:59:40.666Z,100621.36
2023-05-06T22:02:08.488Z,100627.64
2023-05-06T22:04:35.919Z,100635.48
2023-05-06T22:07:03.084Z,100641.77
2023-05-06T22:09:30.520Z,100645.10
2023-05-06T22:11:57.981Z,100647.16
2023-05-06T22:14:30.300Z,100645.72
2023-05-06T22:17:07.010Z,100644.35
2023-05-06T22:19:34.115Z,100650.55
2023-05-06T22:22:01.807Z,100654.86
2023-05-06T22:24:29.180Z,100656.35
2023-05-06T22:26:56.675Z,100656.86
2023-05-06T22:29:23.771Z,100650.30
2023-05-06T22:31:51.268Z,100652.14
2023-05-06T22:34:18.436Z,100652.27
2023-05-06T22:36:45.735Z,100647.57
2023-05-06T22:39:13.975Z,100645.12
2023-05-06T22:41:41.361Z,100640.53
2023-05-06T22:44:08.484Z,100639.11
2023-05-06T22:46:35.780Z,100639.17
2023-05-06T22:49:03.559Z,100633.63
2023-05-06T22:51:32.294Z,100631.29
2023-05-06T22:53:59.589Z,100631.84
2023-05-06T22:56:27.364Z,100632.05
2023-05-06T22:58:54.534Z,100634.53
2023-05-06T23:01:21.759Z,100625.42
2023-05-06T23:03:48.869Z,100626.69
2023-05-06T23:06:16.320Z,100624.64
2023-05-06T23:08:43.620Z,100629.08
2023-05-06T23:11:11.075Z,100631.98
2023-05-06T23:13:38.302Z,100631.08
2023-05-06T23:16:07.922Z,100644.02
2023-05-06T23:18:35.129Z,100647.49
2023-05-06T23:21:02.663Z,100647.56
2023-05-06T23:23:30.135Z,100646.54
2023-05-06T23:25:57.307Z,100642.48
2023-05-06T23:28:24.472Z,100642.80
2023-05-06T23:30:51.848Z,100641.48
2023-05-06T23:33:19.238Z,100635.00
2023-05-06T23:35:46.372Z,100638.70
2023-05-06T23:38:13.430Z,100633.73
2023-05-06T23:40:41.039Z,100636.23
2023-05-06T23:43:10.109Z,100639.91
2023-05-06T23:45:38.180Z,100638.56
2023-05-06T23:48:06.015Z,100640.45
2023-05-06T23:50:33.545Z,100646.72
2023-05-06T23:53:00.734Z,100650.73
2023-05-06T23:55:29.034Z,100654.18
2023-05-06T23:57:56.645Z,100654.73
